createdAt,value
2023-04-20T00:12:02.834Z,100861.53
2023-04-20T00:27:06.456Z,100855.61
2023-04-20T00:42:10.581Z,100857.63
2023-04-20T00:57:14.603Z,100836.67
2023-04-20T01:12:17.764Z,100838.66
2023-04-20T01:27:20.833Z,100832.65
2023-04-20T01:42:24.136Z,100823.15
2023-04-20T01:57:27.330Z,100829.31
2023-04-20T02:12:30.821Z,100826.44
2023-04-20T02:27:34.531Z,100835.82
2023-04-20T02:42:38.164Z,100831.67
2023-04-20T02:57:43.197Z,100829.55
2023-04-20T03:12:46.619Z,100837.76
2023-04-20T03:27:59.835Z,100849.28
2023-04-20T03:43:03.329Z,100866.38
2023-04-20T03:58:09.533Z,100877.70
2023-04-20T04:13:27.112Z,100882.67
2023-04-20T04:28:31.482Z,100887.03
2023-04-20T04:43:48.234Z,100898.07
2023-04-20T04:59:00.803Z,100913.52
2023-04-20T05:32:19.016Z,100934.27
2023-04-20T05:47:22.175Z,100939.64
2023-04-20T06:02:26.291Z,100951.33
2023-04-20T06:17:29.507Z,100967.42
2023-04-20T06:32:32.682Z,100977.05
2023-04-20T06:47:36.327Z,100983.98
2023-04-20T07:02:44.684Z,100986.48
2023-04-20T07:23:51.048Z,100988.92
2023-04-20T07:38:54.312Z,100992.36
2023-04-20T07:53:57.674Z,101000.48
2023-04-20T08:09:00.786Z,101007.64
2023-04-20T08:24:05.564Z,101015.15
2023-04-20T08:39:11.773Z,101021.29
2023-04-20T08:54:16.933Z,101017.94
2023-04-20T09:09:22.422Z,101014.16
2023-04-20T09:24:34.029Z,101006.58
2023-04-20T09:39:42.659Z,101003.45
2023-04-20T09:54:46.707Z,101003.23
2023-04-20T10:09:50.043Z,100998.98
2023-04-20T10:24:53.351Z,100989.50
2023-04-20T10:39:56.605Z,100987.85
2023-04-20T10:54:59.838Z,100976.05
